createdAt,value
2022-11-20T00:00:31.939Z,6.87
2022-11-20T00:03:34.418Z,6.35
2022-11-20T00:06:37.262Z,6.57
2022-11-20T00:09:39.691Z,6.18
2022-11-20T00:12:42.358Z,6.20
2022-11-20T00:15:44.894Z,6.57
2022-11-20T00:18:48.022Z,5.72
2022-11-20T00:21:52.533Z,6.40
2022-11-20T00:24:55.065Z,6.38
2022-11-20T00:27:57.493Z,6.60
2022-11-20T00:31:08.643Z,6.57
2022-11-20T00:34:11.410Z,6.65
2022-11-20T00:37:13.845Z,7.13
2022-11-20T00:40:16.414Z,6.65
2022-11-20T00:43:19.146Z,6.18
2022-11-20T00:46:27.158Z,6.93
2022-11-20T00:49:29.684Z,6.80
2022-11-20T00:52:32.222Z,6.53
2022-11-20T00:55:35.238Z,6.15
2022-11-20T00:58:39.948Z,6.70
2022-11-20T01:01:42.409Z,6.20
2022-11-20T01:04:45.504Z,7.20
2022-11-20T01:07:48.017Z,6.95
2022-11-20T01:10:50.547Z,6.38
2022-11-20T01:13:54.419Z,6.50
2022-11-20T01:16:56.930Z,6.43
2022-11-20T01:19:59.414Z,5.70
2022-11-20T01:23:01.825Z,6.78
2022-11-20T01:26:06.494Z,5.80
2022-11-20T01:29:14.095Z,6.70
2022-11-20T01:32:16.598Z,6.40
2022-11-20T01:35:19.186Z,6.32
2022-11-20T01:38:23.503Z,6.53
2022-11-20T01:41:47.345Z,6.40
2022-11-20T01:44:57.093Z,6.03
2022-11-20T01:47:59.643Z,6.00
2022-11-20T01:51:04.769Z,6.22
2022-11-20T01:54:12.413Z,6.35
2022-11-20T01:57:16.669Z,6.57
2022-11-20T02:00:21.192Z,6.85
2022-11-20T02:03:24.854Z,6.50
2022-11-20T02:06:32.696Z,6.68
2022-11-20T02:09:35.459Z,7.03
2022-11-20T02:12:56.620Z,6.70
2022-11-20T02:15:59.204Z,6.93
2022-11-20T02:19:04.963Z,6.43
2022-11-20T02:22:19.947Z,6.30
2022-11-20T02:25:23.986Z,6.53
2022-11-20T02:28:26.691Z,6.13
2022-11-20T02:31:29.471Z,6.35
2022-11-20T02:34:32.811Z,5.80
2022-11-20T02:37:38.305Z,6.25
2022-11-20T02:40:41.405Z,6.75
2022-11-20T02:43:43.896Z,6.28
2022-11-20T02:46:46.805Z,6.32
2022-11-20T02:49:50.756Z,6.60
2022-11-20T02:52:53.247Z,6.25
2022-11-20T02:55:55.739Z,6.40
2022-11-20T02:58:59.244Z,6.45
2022-11-20T03:02:01.892Z,6.28
2022-11-20T03:05:04.598Z,6.33
2022-11-20T03:08:07.157Z,6.22
2022-11-20T03:11:10.348Z,5.80
2022-11-20T03:14:12.939Z,5.90
2022-11-20T03:17:17.345Z,5.90
2022-11-20T03:20:19.834Z,6.10
2022-11-20T03:23:22.275Z,6.30
2022-11-20T03:26:27.154Z,6.30
2022-11-20T03:29:29.725Z,5.88
2022-11-20T03:32:32.493Z,6.20
2022-11-20T03:35:34.992Z,5.83
2022-11-20T03:38:37.871Z,5.82
2022-11-20T03:41:43.155Z,6.55
2022-11-20T03:44:45.652Z,6.43
2022-11-20T03:47:48.210Z,5.85
2022-11-20T03:50:50.952Z,5.93
2022-11-20T03:53:55.985Z,6.25
2022-11-20T03:56:58.609Z,6.43
2022-11-20T04:00:01.113Z,6.30
2022-11-20T04:03:06.889Z,6.25
2022-11-20T04:06:12.123Z,6.47
2022-11-20T04:09:14.735Z,6.10
2022-11-20T04:12:17.373Z,5.75
2022-11-20T04:15:20.055Z,5.85
2022-11-20T04:18:22.594Z,5.65
2022-11-20T04:21:26.622Z,5.40
2022-11-20T04:24:29.089Z,5.70
2022-11-20T04:27:31.998Z,5.88
2022-11-20T04:30:34.477Z,6.10
2022-11-20T04:33:38.041Z,5.53
2022-11-20T04:36:40.784Z,5.60
2022-11-20T04:39:43.576Z,6.15
2022-11-20T04:42:45.996Z,5.88
2022-11-20T04:45:56.115Z,5.40
2022-11-20T04:48:58.576Z,5.57
2022-11-20T04:52:01.248Z,5.73
2022-11-20T04:55:04.283Z,5.90
2022-11-20T04:58:07.312Z,5.80
2022-11-20T05:01:15.766Z,5.30
2022-11-20T05:04:18.443Z,5.63
2022-11-20T05:07:20.943Z,5.57
2022-11-20T05:10:23.525Z,5.57
2022-11-20T05:13:25.995Z,5.63
2022-11-20T05:16:28.572Z,5.82
2022-11-20T05:19:31.320Z,5.53
2022-11-20T05:22:36.243Z,5.07
2022-11-20T05:25:38.761Z,5.68
2022-11-20T05:28:41.585Z,5.25
2022-11-20T05:31:44.657Z,5.40
2022-11-20T05:34:47.122Z,5.40
2022-11-20T05:37:49.589Z,5.57
2022-11-20T05:40:52.041Z,5.97
2022-11-20T05:43:54.757Z,5.60
2022-11-20T05:46:57.185Z,5.70
2022-11-20T05:49:59.945Z,5.18
2022-11-20T05:53:02.433Z,4.90
2022-11-20T05:56:14.021Z,5.45
2022-11-20T05:59:17.082Z,5.40
2022-11-20T06:02:19.656Z,5.78
2022-11-20T06:05:22.462Z,5.53
2022-11-20T06:08:24.923Z,5.30
2022-11-20T06:11:27.418Z,5.47
2022-11-20T06:14:29.922Z,5.28
2022-11-20T06:17:32.459Z,5.38
2022-11-20T06:20:40.822Z,4.93
2022-11-20T06:23:46.241Z,5.07
2022-11-20T06:26:48.993Z,5.18
2022-11-20T06:29:51.493Z,5.32
2022-11-20T06:32:54.073Z,5.32
2022-11-20T06:36:04.467Z,5.30
2022-11-20T06:39:09.916Z,4.80
2022-11-20T06:42:12.347Z,5.40
2022-11-20T06:45:14.945Z,5.53
2022-11-20T06:48:17.402Z,5.40
2022-11-20T06:51:19.971Z,5.35
2022-11-20T06:54:22.450Z,5.00
2022-11-20T06:57:24.917Z,5.00
2022-11-20T07:00:27.600Z,4.88
2022-11-20T07:03:30.273Z,5.28
2022-11-20T07:06:33.157Z,5.30
2022-11-20T07:09:35.765Z,5.07
2022-11-20T07:12:38.593Z,5.65
2022-11-20T07:15:41.191Z,5.57
2022-11-20T07:18:48.881Z,5.40
2022-11-20T07:21:53.117Z,5.40
2022-11-20T07:24:56.017Z,5.27
2022-11-20T07:28:02.067Z,5.40
2022-11-20T07:31:05.988Z,5.35
2022-11-20T07:34:08.689Z,5.15
2022-11-20T07:37:11.220Z,5.70
2022-11-20T07:40:17.962Z,5.30
2022-11-20T07:43:20.411Z,4.97
2022-11-20T07:46:23.386Z,5.50
2022-11-20T07:49:25.956Z,5.28
2022-11-20T07:52:30.271Z,5.25
2022-11-20T07:55:33.300Z,5.33
2022-11-20T07:58:36.047Z,4.97
2022-11-20T08:01:39.688Z,5.60
2022-11-20T08:04:42.133Z,5.03
2022-11-20T08:07:45.072Z,5.32
2022-11-20T08:10:47.600Z,5.07
2022-11-20T08:14:08.706Z,5.38
2022-11-20T08:17:11.386Z,5.45
2022-11-20T08:20:14.108Z,5.38
2022-11-20T08:23:16.648Z,5.05
2022-11-20T08:26:19.151Z,4.90
2022-11-20T08:29:24.247Z,5.10
2022-11-20T08:32:26.932Z,5.30
2022-11-20T08:35:29.545Z,5.47
2022-11-20T08:38:33.007Z,5.10
2022-11-20T08:41:35.955Z,4.70
2022-11-20T08:44:38.454Z,5.40
2022-11-20T08:47:41.939Z,4.68
2022-11-20T08:50:44.433Z,5.03
2022-11-20T08:53:47.437Z,5.05
2022-11-20T08:56:49.989Z,4.60
2022-11-20T09:00:06.000Z,4.55
2022-11-20T09:03:09.389Z,5.05
2022-11-20T09:06:13.209Z,4.70
2022-11-20T09:09:15.708Z,4.80
2022-11-20T09:12:18.259Z,4.63
2022-11-20T09:15:20.743Z,4.53
2022-11-20T09:18:24.013Z,4.50
2022-11-20T09:21:26.573Z,4.70
2022-11-20T09:24:29.148Z,4.68
2022-11-20T09:27:31.694Z,4.67
2022-11-20T09:30:34.380Z,4.38
2022-11-20T09:33:37.212Z,4.95
2022-11-20T09:36:40.200Z,4.90
2022-11-20T09:39:44.258Z,5.22
2022-11-20T09:42:51.620Z,4.90
2022-11-20T09:46:27.742Z,4.47
2022-11-20T09:50:00.368Z,5.00
2022-11-20T09:53:50.868Z,4.43
2022-11-20T09:57:06.613Z,4.50
2022-11-20T10:00:13.217Z,4.60
2022-11-20T10:03:27.827Z,4.78
2022-11-20T10:06:33.395Z,4.50
2022-11-20T10:09:40.093Z,4.72
2022-11-20T10:12:52.121Z,4.70
2022-11-20T10:16:10.664Z,4.87
2022-11-20T10:19:28.136Z,4.53
2022-11-20T10:22:52.623Z,4.50
2022-11-20T10:26:02.130Z,4.65
2022-11-20T10:29:34.848Z,4.72
2022-11-20T10:33:01.742Z,4.73
2022-11-20T10:36:26.689Z,4.40
2022-11-20T10:39:47.729Z,4.78
2022-11-20T10:42:58.230Z,4.55
2022-11-20T10:46:15.320Z,4.18
2022-11-20T10:49:21.364Z,4.60
2022-11-20T10:52:42.488Z,4.47
2022-11-20T10:55:51.627Z,4.72
2022-11-20T10:59:27.848Z,4.90
2022-11-20T11:02:49.939Z,4.13
2022-11-20T11:06:26.384Z,4.50
2022-11-20T11:09:35.448Z,4.32
2022-11-20T11:12:38.056Z,4.82
2022-11-20T11:15:42.212Z,4.20
2022-11-20T11:18:44.636Z,4.50
2022-11-20T11:21:57.781Z,4.27
2022-11-20T11:25:01.192Z,4.30
2022-11-20T11:28:22.303Z,4.85
2022-11-20T11:31:36.063Z,4.30
2022-11-20T11:34:38.718Z,4.20
2022-11-20T11:37:42.016Z,4.53
2022-11-20T11:40:45.221Z,4.22
2022-11-20T11:44:15.988Z,4.47
2022-11-20T11:47:25.412Z,4.22
2022-11-20T11:50:29.918Z,4.05
2022-11-20T11:53:33.733Z,4.23
2022-11-20T11:56:36.438Z,4.30
2022-11-20T12:00:07.133Z,4.30
2022-11-20T12:03:51.057Z,4.22
2022-11-20T12:07:18.392Z,4.38
2022-11-20T12:10:34.000Z,4.00
2022-11-20T12:13:57.112Z,4.18
2022-11-20T12:16:59.613Z,4.05
2022-11-20T12:20:02.179Z,4.55
2022-11-20T12:23:30.232Z,4.53
2022-11-20T12:26:50.825Z,3.90
2022-11-20T12:30:09.709Z,4.43
2022-11-20T12:33:59.415Z,4.45
2022-11-20T12:37:16.677Z,4.28
2022-11-20T12:40:20.693Z,4.20
2022-11-20T12:43:43.977Z,4.13
2022-11-20T12:46:54.660Z,4.18
2022-11-20T12:50:09.755Z,4.35
2022-11-20T12:53:46.068Z,3.92
2022-11-20T12:56:48.687Z,4.07
2022-11-20T13:00:15.979Z,4.03
2022-11-20T13:03:38.317Z,4.38
2022-11-20T13:06:42.673Z,4.18
2022-11-20T13:09:50.932Z,4.00
2022-11-20T13:13:08.952Z,4.35
2022-11-20T13:16:42.533Z,4.17
2022-11-20T13:19:55.673Z,3.70
2022-11-20T13:22:59.301Z,3.95
2022-11-20T13:26:17.461Z,3.90
2022-11-20T13:29:20.860Z,4.05
2022-11-20T13:32:23.575Z,4.10
2022-11-20T13:35:30.404Z,3.88
2022-11-20T13:38:49.184Z,4.13
2022-11-20T13:42:00.409Z,3.70
2022-11-20T13:45:11.796Z,3.80
2022-11-20T13:48:25.878Z,3.80
2022-11-20T13:52:09.438Z,3.80
2022-11-20T13:55:48.674Z,4.35
2022-11-20T13:59:09.667Z,3.70
2022-11-20T14:02:19.194Z,3.90
2022-11-20T14:05:24.328Z,3.73
2022-11-20T14:08:48.758Z,3.97
2022-11-20T14:11:51.374Z,4.00
2022-11-20T14:14:55.828Z,3.90
2022-11-20T14:17:59.890Z,4.03
2022-11-20T14:21:05.239Z,3.77
2022-11-20T14:24:12.060Z,4.18
2022-11-20T14:27:20.318Z,3.80
2022-11-20T14:30:30.769Z,3.90
2022-11-20T14:33:34.327Z,3.90
2022-11-20T14:36:39.321Z,3.63
2022-11-20T14:39:49.034Z,3.40
2022-11-20T14:42:51.647Z,4.03
2022-11-20T14:46:04.010Z,3.83
2022-11-20T14:49:06.708Z,3.88
2022-11-20T14:52:21.528Z,3.60
2022-11-20T14:55:38.682Z,3.80
2022-11-20T14:58:41.595Z,3.80
2022-11-20T15:01:57.996Z,4.03
2022-11-20T15:05:05.792Z,3.97
2022-11-20T15:08:10.151Z,3.70
2022-11-20T15:11:30.535Z,3.55
2022-11-20T15:14:37.477Z,4.28
2022-11-20T15:17:42.738Z,3.92
2022-11-20T15:20:47.420Z,3.95
2022-11-20T15:23:51.270Z,3.70
2022-11-20T15:26:56.125Z,3.67
2022-11-20T15:29:59.268Z,3.65
2022-11-20T15:33:02.065Z,3.80
2022-11-20T15:36:05.928Z,3.40
2022-11-20T15:39:10.186Z,3.80
2022-11-20T15:42:13.798Z,3.58
2022-11-20T15:45:17.456Z,4.03
2022-11-20T15:48:23.185Z,3.90
2022-11-20T15:51:31.333Z,3.95
2022-11-20T15:54:34.914Z,3.70
2022-11-20T15:57:37.875Z,3.70
2022-11-20T16:00:41.654Z,3.80
2022-11-20T16:03:44.736Z,4.22
2022-11-20T16:06:47.874Z,4.07
2022-11-20T16:09:51.145Z,3.70
2022-11-20T16:13:13.746Z,3.60
2022-11-20T16:16:30.971Z,3.75
2022-11-20T16:19:34.963Z,3.90
2022-11-20T16:22:37.916Z,3.80
2022-11-20T16:25:40.682Z,3.90
2022-11-20T16:28:44.393Z,4.07
2022-11-20T16:31:47.509Z,4.07
2022-11-20T16:34:51.096Z,3.80
2022-11-20T16:37:56.653Z,3.53
2022-11-20T16:41:05.608Z,3.70
2022-11-20T16:44:11.040Z,3.90
2022-11-20T16:47:14.058Z,4.32
2022-11-20T16:50:17.251Z,4.20
2022-11-20T16:53:22.048Z,4.00
2022-11-20T16:56:27.390Z,3.90
2022-11-20T16:59:30.042Z,3.88
2022-11-20T17:02:33.972Z,4.28
2022-11-20T17:05:55.063Z,4.10
2022-11-20T17:08:58.607Z,4.20
2022-11-20T17:12:01.468Z,4.00
2022-11-20T17:15:04.267Z,3.88
2022-11-20T17:18:07.280Z,4.57
2022-11-20T17:21:10.611Z,3.92
2022-11-20T17:24:14.031Z,3.80
2022-11-20T17:27:19.879Z,4.00
2022-11-20T17:30:22.447Z,4.10
2022-11-20T17:33:25.385Z,4.22
2022-11-20T17:36:29.552Z,4.00
2022-11-20T17:39:32.940Z,4.40
2022-11-20T17:42:37.523Z,4.30
2022-11-20T17:45:40.985Z,4.20
2022-11-20T17:48:45.632Z,4.47
2022-11-20T17:51:48.060Z,4.20
2022-11-20T17:54:53.061Z,4.50
2022-11-20T17:58:03.278Z,4.00
2022-11-20T18:01:08.291Z,4.28
2022-11-20T18:04:12.745Z,4.45
2022-11-20T18:07:17.145Z,4.63
2022-11-20T18:10:20.211Z,4.45
2022-11-20T18:13:47.584Z,4.13
2022-11-20T18:16:53.740Z,4.70
2022-11-20T18:20:21.872Z,4.43
2022-11-20T18:23:19.565Z,4.30
2022-11-20T18:26:24.390Z,4.43
2022-11-20T18:29:28.650Z,4.30
2022-11-20T18:32:31.301Z,4.30
2022-11-20T18:35:41.195Z,4.13
2022-11-20T18:38:45.562Z,4.30
2022-11-20T18:42:07.557Z,4.40
2022-11-20T18:45:10.747Z,4.40
2022-11-20T18:48:13.740Z,4.32
2022-11-20T18:51:17.597Z,4.47
2022-11-20T18:54:21.088Z,4.47
2022-11-20T18:57:27.489Z,4.70
2022-11-20T19:00:30.569Z,5.00
2022-11-20T19:03:33.893Z,4.55
2022-11-20T19:06:38.019Z,4.80
2022-11-20T19:09:51.282Z,4.85
2022-11-20T19:12:56.569Z,5.00
2022-11-20T19:16:14.512Z,4.60
2022-11-20T19:19:18.509Z,4.50
2022-11-20T19:22:22.374Z,4.45
2022-11-20T19:25:26.936Z,4.82
2022-11-20T19:28:34.401Z,4.70
2022-11-20T19:31:37.451Z,4.83
2022-11-20T19:34:40.651Z,4.88
2022-11-20T19:37:44.548Z,5.53
2022-11-20T19:40:48.183Z,5.28
2022-11-20T19:43:50.908Z,4.90
2022-11-20T19:46:53.579Z,5.10
2022-11-20T19:49:56.158Z,4.70
2022-11-20T19:52:59.256Z,4.93
2022-11-20T19:56:02.613Z,5.00
2022-11-20T19:59:06.161Z,4.85
2022-11-20T20:02:11.891Z,5.23
2022-11-20T20:05:14.974Z,4.68
2022-11-20T20:08:18.025Z,4.60
2022-11-20T20:11:22.738Z,5.00
2022-11-20T20:14:26.857Z,5.20
2022-11-20T20:17:30.015Z,5.17
2022-11-20T20:20:33.170Z,4.88
2022-11-20T20:23:35.927Z,4.70
2022-11-20T20:26:38.885Z,5.38
2022-11-20T20:29:42.161Z,5.07
2022-11-20T20:32:45.439Z,5.03
2022-11-20T20:35:48.259Z,4.88
2022-11-20T20:38:55.643Z,4.88
2022-11-20T20:41:58.504Z,5.05
2022-11-20T20:45:07.218Z,4.75
2022-11-20T20:48:10.165Z,4.60
2022-11-20T20:51:13.055Z,4.93
2022-11-20T20:54:16.067Z,4.57
2022-11-20T20:57:18.625Z,5.00
2022-11-20T21:00:21.302Z,4.80
2022-11-20T21:03:24.199Z,4.77
2022-11-20T21:06:27.288Z,4.82
2022-11-20T21:09:29.828Z,5.15
2022-11-20T21:12:32.915Z,4.95
2022-11-20T21:15:39.173Z,4.93
2022-11-20T21:18:42.702Z,5.00
2022-11-20T21:22:00.731Z,4.68
2022-11-20T21:25:03.327Z,4.85
2022-11-20T21:28:06.881Z,4.97
2022-11-20T21:31:27.484Z,4.53
2022-11-20T21:34:30.270Z,4.97
2022-11-20T21:37:36.032Z,4.47
2022-11-20T21:40:42.630Z,4.85
2022-11-20T21:43:45.703Z,4.70
2022-11-20T21:46:48.284Z,4.93
2022-11-20T21:49:51.635Z,4.90
2022-11-20T21:52:54.213Z,4.90
2022-11-20T21:55:58.046Z,4.95
2022-11-20T21:59:01.473Z,4.85
2022-11-20T22:02:03.979Z,5.25
2022-11-20T22:05:07.747Z,4.63
2022-11-20T22:08:10.253Z,5.15
2022-11-20T22:11:19.687Z,4.72
2022-11-20T22:14:22.719Z,4.60
2022-11-20T22:17:45.886Z,5.05
2022-11-20T22:20:48.683Z,4.77
2022-11-20T22:23:52.017Z,4.90
2022-11-20T22:26:54.535Z,5.20
2022-11-20T22:29:57.088Z,4.53
2022-11-20T22:32:59.608Z,5.03
2022-11-20T22:36:14.605Z,4.80
2022-11-20T22:39:17.922Z,4.60
2022-11-20T22:42:20.425Z,4.80
2022-11-20T22:45:22.987Z,4.88
2022-11-20T22:48:25.785Z,4.65
2022-11-20T22:51:31.049Z,4.60
2022-11-20T22:54:33.536Z,4.72
2022-11-20T22:57:35.985Z,4.60
2022-11-20T23:00:38.853Z,4.57
2022-11-20T23:03:43.187Z,4.93
2022-11-20T23:06:45.630Z,4.60
2022-11-20T23:09:48.673Z,4.78
2022-11-20T23:12:51.157Z,4.75
2022-11-20T23:15:53.760Z,4.80
2022-11-20T23:19:05.813Z,5.03
2022-11-20T23:22:08.653Z,4.60
2022-11-20T23:25:11.199Z,4.80
2022-11-20T23:28:13.884Z,4.50
2022-11-20T23:31:17.034Z,4.80
2022-11-20T23:34:19.562Z,4.93
2022-11-20T23:37:23.385Z,4.30
2022-11-20T23:40:25.847Z,4.32
2022-11-20T23:43:28.710Z,4.90
2022-11-20T23:46:31.185Z,4.85
2022-11-20T23:49:34.168Z,4.72
2022-11-20T23:52:36.689Z,4.90
2022-11-20T23:55:39.151Z,4.20
2022-11-20T23:58:41.720Z,5.25
